Time;durP1;ratioP1;P1;durP2;ratioP2;P2;SDS_P1;SDS_P2;PMS_P1;PMS_P2;Temp;Humidity;BMP_temperature;BMP_pressure;BME280_temperature;BME280_humidity;BME280_pressure;Samples;Min_cycle;Max_cycle;Signal;HPM_P1;HPM_P2
2023/08/04 00:00:12;;;;;;;1.13;0.60;;;;;;;17.71;75.00;99983.19;7397494;19;20010;-67
2023/08/04 00:02:41;;;;;;;1.75;0.60;;;;;;;17.74;75.09;99988.31;7397107;19;20014;-67
2023/08/04 00:05:12;;;;;;;2.55;0.50;;;;;;;17.74;75.14;99984.78;7397089;19;20086;-67
2023/08/04 00:07:40;;;;;;;1.38;0.73;;;;;;;17.75;75.23;99990.03;7395805;19;20014;-67
2023/08/04 00:10:09;;;;;;;3.70;0.60;;;;;;;17.73;75.08;99993.69;7395315;19;20390;-67
2023/08/04 00:12:38;;;;;;;1.05;0.60;;;;;;;17.74;75.04;99992.75;7397180;19;20015;-67
2023/08/04 00:15:09;;;;;;;1.23;0.60;;;;;;;17.74;74.96;99990.09;7397004;19;20081;-67
2023/08/04 00:17:38;;;;;;;1.13;0.60;;;;;;;17.75;75.28;99984.72;7395000;19;20078;-67
2023/08/04 00:20:10;;;;;;;3.28;0.70;;;;;;;17.76;75.41;99996.16;7396815;19;20010;-67
2023/08/04 00:22:42;;;;;;;1.13;0.88;;;;;;;17.75;75.55;99987.38;7397292;19;20010;-67
2023/08/04 00:25:11;;;;;;;2.33;0.70;;;;;;;17.74;75.23;99996.28;7395326;19;20023;-68
2023/08/04 00:27:39;;;;;;;2.75;0.63;;;;;;;17.74;75.59;99998.06;7395091;19;20056;-67
2023/08/04 00:30:10;;;;;;;0.95;0.57;;;;;;;17.74;75.71;100006.03;7395143;19;20077;-67
2023/08/04 00:32:39;;;;;;;1.48;0.82;;;;;;;17.72;75.41;100007.94;7394506;19;20021;-66
2023/08/04 00:35:08;;;;;;;0.80;0.70;;;;;;;17.72;75.65;100019.38;7396367;19;20371;-66
2023/08/04 00:37:36;;;;;;;2.10;0.70;;;;;;;17.71;75.88;100012.38;7392107;19;20014;-66
2023/08/04 00:40:09;;;;;;;1.15;0.60;;;;;;;17.71;75.82;100016.84;7396244;19;20007;-67
2023/08/04 00:42:38;;;;;;;2.25;1.02;;;;;;;17.70;75.99;100013.31;7394163;19;20019;-66
2023/08/04 00:45:08;;;;;;;2.05;0.80;;;;;;;17.70;76.09;100018.63;7396033;19;20075;-67
2023/08/04 00:47:37;;;;;;;1.63;0.75;;;;;;;17.69;76.18;100010.78;7394253;19;20070;-68
2023/08/04 00:50:09;;;;;;;1.20;0.90;;;;;;;17.69;76.16;100016.94;7394491;19;20033;-67
2023/08/04 00:52:46;;;;;;;1.27;0.73;;;;;;;17.70;76.25;100018.63;7394171;19;20031;-67
2023/08/04 00:55:19;;;;;;;1.92;0.90;;;;;;;17.69;76.13;100022.25;7395459;19;20489;-67
2023/08/04 00:57:49;;;;;;;0.85;0.47;;;;;;;17.68;76.55;100017.88;7394217;19;20070;-63
2023/08/04 01:00:18;;;;;;;2.42;0.80;;;;;;;17.67;76.88;100018.81;7395316;19;20028;-66
2023/08/04 01:02:46;;;;;;;1.77;1.10;;;;;;;17.68;76.77;100024.97;7395602;19;20011;-67
2023/08/04 01:05:15;;;;;;;2.83;0.98;;;;;;;17.65;77.24;100026.03;7395130;19;20498;-67
2023/08/04 01:07:52;;;;;;;1.30;1.10;;;;;;;17.65;77.63;100036.63;7393260;19;20024;-68
2023/08/04 01:10:29;;;;;;;1.77;0.93;;;;;;;17.65;77.80;100057.00;7393649;19;20070;-67
2023/08/04 01:13:02;;;;;;;1.88;1.77;;;;;;;17.65;77.77;100068.47;7395025;19;20033;-65
2023/08/04 01:15:31;;;;;;;2.17;1.27;;;;;;;17.65;77.72;100072.94;7394877;19;20011;-67
2023/08/04 01:18:00;;;;;;;1.73;1.10;;;;;;;17.66;78.17;100088.75;7393334;19;20515;-67
2023/08/04 01:20:30;;;;;;;3.20;1.27;;;;;;;17.65;78.14;100097.63;7395095;19;20019;-66
2023/08/04 01:23:01;;;;;;;2.63;1.35;;;;;;;17.67;78.54;100119.63;7395781;19;20033;-66
2023/08/04 01:25:37;;;;;;;3.10;1.20;;;;;;;17.65;78.67;100120.66;7394472;19;20510;-67
2023/08/04 01:28:10;;;;;;;2.42;1.10;;;;;;;17.66;78.45;100125.03;7394620;19;20369;-67
2023/08/04 01:30:41;;;;;;;3.80;1.65;;;;;;;17.65;78.52;100126.81;7393655;19;20066;-67
2023/08/04 01:33:09;;;;;;;1.67;1.50;;;;;;;17.64;78.28;100118.97;7394436;19;20011;-67
2023/08/04 01:35:38;;;;;;;5.07;1.65;;;;;;;17.61;78.70;100117.34;7392309;19;20502;-67
2023/08/04 01:38:09;;;;;;;2.47;1.85;;;;;;;17.61;79.08;100124.47;7394724;19;20027;-67
2023/08/04 01:40:37;;;;;;;2.83;1.45;;;;;;;17.61;78.98;100138.56;7394996;19;20014;-67
2023/08/04 01:43:06;;;;;;;2.95;1.42;;;;;;;17.59;79.29;100141.31;7394693;19;20028;-67
2023/08/04 01:45:35;;;;;;;3.03;1.45;;;;;;;17.59;78.93;100136.00;7394404;19;20078;-66
2023/08/04 01:48:03;;;;;;;4.10;1.63;;;;;;;17.58;79.12;100136.13;7394461;19;20031;-66
2023/08/04 01:50:29;;;;;;;3.33;1.80;;;;;;;17.57;79.14;100134.41;7399705;19;20011;-66
2023/08/04 01:52:58;;;;;;;2.85;1.60;;;;;;;17.57;78.95;100145.00;7399348;19;20011;-66
2023/08/04 01:55:29;;;;;;;2.63;1.77;;;;;;;17.56;79.20;100135.34;7398594;19;20010;-67
2023/08/04 01:57:57;;;;;;;3.40;1.50;;;;;;;17.56;79.17;100143.31;7398914;19;20037;-66
2023/08/04 02:00:26;;;;;;;3.25;1.95;;;;;;;17.55;79.04;100144.25;7401230;19;20410;-66
2023/08/04 02:02:54;;;;;;;3.38;1.77;;;;;;;17.53;79.47;100144.34;7401488;19;20091;-67
2023/08/04 02:05:23;;;;;;;3.05;2.03;;;;;;;17.51;79.94;100150.69;7401262;19;20014;-66
2023/08/04 02:07:51;;;;;;;3.22;1.83;;;;;;;17.47;80.32;100141.22;7398364;19;20014;-67
2023/08/04 02:10:20;;;;;;;3.67;1.77;;;;;;;17.43;81.31;100143.19;7399508;19;20032;-67
2023/08/04 02:12:51;;;;;;;4.75;1.90;;;;;;;17.38;81.22;100156.72;7401200;19;20070;-66
2023/08/04 02:15:22;;;;;;;6.78;2.42;;;;;;;17.30;82.38;100158.13;7401349;19;20007;-66
2023/08/04 02:17:50;;;;;;;5.50;2.50;;;;;;;17.22;82.88;100159.41;7398505;19;20010;-67
2023/08/04 02:20:19;;;;;;;3.60;2.30;;;;;;;17.15;83.69;100162.50;7400745;19;20014;-66
2023/08/04 02:22:47;;;;;;;4.32;2.40;;;;;;;17.07;84.30;100160.31;7400786;19;20031;-67
2023/08/04 02:25:16;;;;;;;4.90;2.50;;;;;;;16.99;84.96;100160.78;7400668;19;20019;-66
2023/08/04 02:27:44;;;;;;;2.33;2.13;;;;;;;16.92;85.67;100164.69;7397872;19;20477;-66
2023/08/04 02:30:16;;;;;;;5.85;2.75;;;;;;;16.87;85.54;100172.91;7398929;19;20082;-65
2023/08/04 02:32:44;;;;;;;6.13;2.80;;;;;;;16.84;86.31;100169.56;7400045;19;20502;-66
2023/08/04 02:35:13;;;;;;;4.50;2.63;;;;;;;16.81;86.40;100177.69;7397365;19;20021;-66
2023/08/04 02:37:41;;;;;;;3.58;2.88;;;;;;;16.77;86.63;100167.28;7397561;19;20014;-66
2023/08/04 02:40:11;;;;;;;5.55;2.90;;;;;;;16.75;87.01;100170.94;7399568;19;20422;-66
2023/08/04 02:42:39;;;;;;;6.53;3.20;;;;;;;16.72;86.92;100171.97;7400029;19;20018;-66
2023/08/04 02:45:10;;;;;;;5.45;2.65;;;;;;;16.70;87.89;100181.78;7399608;19;20485;-65
2023/08/04 02:47:42;;;;;;;7.43;2.95;;;;;;;16.67;88.14;100173.16;7397187;19;20513;-67
2023/08/04 02:50:11;;;;;;;5.47;2.80;;;;;;;16.65;87.78;100173.25;7399230;19;20062;-66
2023/08/04 02:52:45;;;;;;;5.05;3.00;;;;;;;16.64;87.94;100171.53;7396781;19;20018;-67
2023/08/04 02:55:14;;;;;;;6.00;3.15;;;;;;;16.62;88.49;100162.84;7399323;19;20508;-66
2023/08/04 02:57:43;;;;;;;6.13;3.05;;;;;;;16.60;88.12;100160.28;7397009;19;20011;-67
2023/08/04 03:00:12;;;;;;;6.82;3.08;;;;;;;16.58;88.65;100161.28;7397408;19;20074;-67
2023/08/04 03:02:43;;;;;;;7.40;3.20;;;;;;;16.53;88.24;100158.91;7399349;19;20037;-67
2023/08/04 03:05:11;;;;;;;5.88;3.10;;;;;;;16.56;88.46;100173.78;7399592;19;20030;-67
2023/08/04 03:07:40;;;;;;;6.35;2.72;;;;;;;16.55;88.44;100183.50;7396473;19;20437;-66
2023/08/04 03:10:09;;;;;;;7.40;3.58;;;;;;;16.56;88.37;100200.25;7398081;19;20022;-66
2023/08/04 03:12:38;;;;;;;4.68;2.70;;;;;;;16.55;88.41;100203.84;7398328;19;20073;-66
2023/08/04 03:15:07;;;;;;;5.35;3.00;;;;;;;16.54;88.14;100210.06;7398599;19;20014;-66
2023/08/04 03:17:36;;;;;;;5.18;3.00;;;;;;;16.55;88.07;100206.50;7396269;19;20111;-66
2023/08/04 03:20:08;;;;;;;4.78;2.92;;;;;;;16.53;87.90;100211.88;7398887;19;20027;-66
2023/08/04 03:22:36;;;;;;;5.43;3.15;;;;;;;16.54;87.72;100212.72;7396340;19;20506;-66
2023/08/04 03:25:06;;;;;;;6.13;2.92;;;;;;;16.50;87.80;100206.75;7398156;19;20430;-66
2023/08/04 03:27:34;;;;;;;7.38;3.20;;;;;;;16.51;87.79;100204.97;7396341;19;20011;-66
2023/08/04 03:30:03;;;;;;;4.75;3.08;;;;;;;16.49;87.70;100212.13;7397704;19;20433;-66
2023/08/04 03:32:31;;;;;;;7.07;3.85;;;;;;;16.46;87.75;100213.16;7398284;19;20011;-66
2023/08/04 03:35:00;;;;;;;6.57;3.95;;;;;;;16.43;87.50;100219.47;7398092;19;20098;-66
2023/08/04 03:37:31;;;;;;;6.47;3.13;;;;;;;16.41;87.71;100223.97;7396001;19;20477;-65
2023/08/04 03:39:59;;;;;;;6.03;2.92;;;;;;;16.40;87.53;100226.72;7396310;19;20039;-66
2023/08/04 03:42:28;;;;;;;7.07;3.15;;;;;;;16.36;87.47;100233.13;7398248;19;20015;-66
2023/08/04 03:44:56;;;;;;;6.97;3.33;;;;;;;16.35;87.41;100240.22;7397850;19;20074;-67
2023/08/04 03:47:24;;;;;;;9.75;3.30;;;;;;;16.33;87.59;100235.91;7396293;19;20090;-66
2023/08/04 03:49:53;;;;;;;11.10;3.20;;;;;;;16.31;87.19;100238.66;7397104;19;20086;-66
2023/08/04 03:52:21;;;;;;;6.43;2.90;;;;;;;16.28;87.31;100239.69;7396331;19;20379;-66
2023/08/04 03:54:52;;;;;;;8.85;3.88;;;;;;;16.27;87.19;100229.19;7397629;19;20010;-67
2023/08/04 03:57:21;;;;;;;5.93;3.20;;;;;;;16.25;86.96;100239.84;7396197;19;20079;-67
2023/08/04 03:59:50;;;;;;;8.80;3.72;;;;;;;16.24;86.72;100243.44;7398002;19;20074;-67
2023/08/04 04:02:19;;;;;;;10.38;3.45;;;;;;;16.23;86.96;100246.16;7397626;19;20413;-67
2023/08/04 04:04:47;;;;;;;6.85;3.10;;;;;;;16.23;86.55;100254.94;7395381;19;20010;-67
2023/08/04 04:07:16;;;;;;;7.40;3.13;;;;;;;16.26;86.55;100259.22;7395601;19;20023;-65
2023/08/04 04:09:44;;;;;;;7.80;3.50;;;;;;;16.26;86.35;100264.53;7397389;19;20027;-67
2023/08/04 04:12:15;;;;;;;8.77;3.10;;;;;;;16.27;85.85;100260.94;7397022;19;20074;-67
2023/08/04 04:14:44;;;;;;;6.45;2.90;;;;;;;16.26;85.74;100260.09;7398292;19;20074;-67
2023/08/04 04:17:12;;;;;;;9.43;4.00;;;;;;;16.27;86.16;100263.59;7395898;19;20074;-67
2023/08/04 04:19:41;;;;;;;4.38;2.85;;;;;;;16.26;85.83;100277.75;7397889;19;20019;-67
2023/08/04 04:22:11;;;;;;;12.85;4.05;;;;;;;16.24;85.79;100275.19;7394633;19;20497;-67
2023/08/04 04:24:40;;;;;;;7.07;3.20;;;;;;;16.24;85.80;100277.00;7395140;19;20010;-67
2023/08/04 04:27:11;;;;;;;12.45;3.53;;;;;;;16.22;85.66;100273.56;7394780;19;20014;-66
2023/08/04 04:29:42;;;;;;;6.32;3.10;;;;;;;16.21;85.72;100282.44;7395075;19;20075;-66
2023/08/04 04:32:11;;;;;;;8.75;3.45;;;;;;;16.21;85.40;100279.78;7396052;19;20069;-67
2023/08/04 04:34:40;;;;;;;6.32;3.20;;;;;;;16.20;85.51;100283.38;7396052;19;20042;-67
2023/08/04 04:37:08;;;;;;;9.35;3.38;;;;;;;16.19;85.77;100289.59;7394631;19;20028;-67
2023/08/04 04:39:37;;;;;;;7.65;3.10;;;;;;;16.19;85.60;100294.88;7394376;19;20014;-67
2023/08/04 04:42:06;;;;;;;5.25;3.50;;;;;;;16.17;85.60;100292.31;7395592;19;20343;-67
2023/08/04 04:44:34;;;;;;;7.50;3.72;;;;;;;16.17;85.62;100297.63;7394301;19;20070;-67
2023/08/04 04:47:06;;;;;;;7.93;3.53;;;;;;;16.16;85.50;100316.22;7393986;19;20082;-65
2023/08/04 04:49:34;;;;;;;9.63;3.25;;;;;;;16.17;85.62;100307.34;7395955;19;20070;-66
2023/08/04 04:52:03;;;;;;;7.63;3.38;;;;;;;16.17;85.34;100308.19;7393031;19;20078;-66
2023/08/04 04:54:31;;;;;;;7.70;3.90;;;;;;;16.20;85.18;100309.84;7395948;19;20022;-66
2023/08/04 04:57:00;;;;;;;6.97;3.25;;;;;;;16.22;84.77;100308.81;7394570;19;20015;-66
2023/08/04 04:59:28;;;;;;;7.88;3.13;;;;;;;16.24;84.88;100312.25;7395159;19;20434;-66
2023/08/04 05:01:56;;;;;;;6.35;3.75;;;;;;;16.26;84.86;100310.38;7395505;19;20074;-65
2023/08/04 05:04:27;;;;;;;10.95;3.13;;;;;;;16.28;84.53;100305.00;7394689;19;20010;-66
2023/08/04 05:06:56;;;;;;;7.30;3.30;;;;;;;16.30;84.22;100313.69;7393851;19;20014;-66
2023/08/04 05:09:24;;;;;;;8.07;3.22;;;;;;;16.31;84.22;100312.78;7394663;19;20015;-66
2023/08/04 05:11:53;;;;;;;5.07;3.05;;;;;;;16.35;84.18;100313.47;7393847;19;20014;-67
2023/08/04 05:14:21;;;;;;;9.60;3.00;;;;;;;16.37;84.07;100316.91;7394773;19;20018;-67
2023/08/04 05:16:49;;;;;;;7.03;2.72;;;;;;;16.38;83.94;100314.16;7394274;19;20073;-67
2023/08/04 05:19:18;;;;;;;6.88;3.17;;;;;;;16.41;84.05;100314.00;7394403;19;20070;-67
2023/08/04 05:21:49;;;;;;;9.05;3.55;;;;;;;16.42;84.02;100314.88;7394672;19;20014;-68
2023/08/04 05:24:17;;;;;;;9.40;3.03;;;;;;;16.44;83.72;100318.28;7401378;19;20014;-65
2023/08/04 05:26:46;;;;;;;7.70;3.15;;;;;;;16.45;83.47;100323.50;7399618;19;20082;-65
2023/08/04 05:29:14;;;;;;;5.97;3.03;;;;;;;16.48;83.25;100319.84;7401970;19;20502;-67
2023/08/04 05:31:43;;;;;;;6.75;3.10;;;;;;;16.51;83.44;100322.31;7400077;19;20082;-67
2023/08/04 05:34:11;;;;;;;9.40;2.88;;;;;;;16.55;83.25;100315.06;7402098;19;20027;-67
2023/08/04 05:36:39;;;;;;;8.40;3.15;;;;;;;16.58;82.96;100328.13;7400634;19;20022;-67
2023/08/04 05:39:10;;;;;;;7.85;3.03;;;;;;;16.60;82.96;100323.63;7399010;19;20082;-67
2023/08/04 05:41:39;;;;;;;9.73;3.17;;;;;;;16.65;82.54;100341.91;7400213;19;20015;-67
2023/08/04 05:44:07;;;;;;;6.13;2.65;;;;;;;16.65;82.32;100337.47;7401302;19;20086;-67
2023/08/04 05:46:36;;;;;;;12.23;3.30;;;;;;;16.70;82.46;100337.22;7400080;19;20585;-66
2023/08/04 05:49:04;;;;;;;7.82;3.33;;;;;;;16.72;82.13;100346.78;7398807;19;20086;-67
2023/08/04 05:51:33;;;;;;;9.73;3.72;;;;;;;16.77;82.27;100341.25;7399460;19;20014;-67
2023/08/04 05:54:01;;;;;;;8.02;2.95;;;;;;;16.83;81.62;100350.66;7401584;19;20007;-67
2023/08/04 05:56:32;;;;;;;10.48;2.95;;;;;;;16.86;81.44;100350.50;7399961;19;20078;-67
2023/08/04 05:59:00;;;;;;;6.35;3.25;;;;;;;16.90;80.99;100360.84;7401572;19;20011;-67
2023/08/04 06:01:29;;;;;;;10.25;2.95;;;;;;;16.94;80.88;100356.25;7401305;19;20018;-67
2023/08/04 06:03:58;;;;;;;7.28;3.10;;;;;;;17.00;80.43;100365.69;7401033;19;20018;-67
2023/08/04 06:06:26;;;;;;;9.95;3.15;;;;;;;17.06;80.09;100362.66;7399479;19;20032;-67
2023/08/04 06:08:55;;;;;;;12.20;2.30;;;;;;;17.09;79.83;100366.00;7400498;19;20006;-66
2023/08/04 06:11:24;;;;;;;10.18;2.92;;;;;;;17.16;79.61;100369.19;7398393;19;20073;-66
2023/08/04 06:13:55;;;;;;;4.95;2.10;;;;;;;17.24;79.07;100376.72;7400981;19;20052;-66
2023/08/04 06:16:23;;;;;;;14.15;3.13;;;;;;;17.31;79.02;100378.06;7400332;19;20073;-65
2023/08/04 06:18:52;;;;;;;9.13;2.75;;;;;;;17.38;78.31;100387.41;7398026;19;20576;-67
2023/08/04 06:21:20;;;;;;;9.88;2.58;;;;;;;17.49;78.45;100388.59;7397848;19;20027;-67
2023/08/04 06:23:49;;;;;;;8.52;2.55;;;;;;;17.54;77.59;100400.66;7397901;19;20074;-66
2023/08/04 06:26:18;;;;;;;8.30;3.00;;;;;;;17.59;75.93;100409.22;7397624;19;20067;-65
2023/08/04 06:28:46;;;;;;;6.63;2.15;;;;;;;17.63;76.25;100404.59;7399720;19;20485;-66
2023/08/04 06:31:17;;;;;;;5.70;2.40;;;;;;;17.63;75.97;100404.59;7397538;19;20070;-67
2023/08/04 06:33:45;;;;;;;6.57;2.58;;;;;;;17.64;76.16;100401.00;7399041;19;20018;-67
2023/08/04 06:36:14;;;;;;;5.72;2.50;;;;;;;17.65;76.20;100402.69;7395745;19;20082;-66
2023/08/04 06:38:42;;;;;;;7.45;2.83;;;;;;;17.67;75.97;100399.97;7399381;19;20082;-67
2023/08/04 06:41:11;;;;;;;6.07;2.92;;;;;;;17.67;76.11;100395.50;7400010;19;20031;-66
2023/08/04 06:43:39;;;;;;;7.05;2.42;;;;;;;17.70;75.84;100394.47;7399861;19;20010;-66
2023/08/04 06:46:08;;;;;;;3.45;2.10;;;;;;;17.69;75.68;100398.94;7398762;19;20018;-66
2023/08/04 06:48:39;;;;;;;7.57;2.60;;;;;;;17.70;75.55;100405.09;7399343;19;20006;-67
2023/08/04 06:51:07;;;;;;;6.03;3.40;;;;;;;17.70;75.73;100399.78;7399263;19;20018;-67
2023/08/04 06:53:42;;;;;;;8.35;2.50;;;;;;;17.73;75.08;100403.13;7397558;19;20423;-66
2023/08/04 06:56:10;;;;;;;5.13;1.88;;;;;;;17.75;75.45;100409.22;7398468;19;20469;-66
2023/08/04 06:58:39;;;;;;;5.72;2.90;;;;;;;17.78;75.68;100408.19;7399391;19;20075;-67
2023/08/04 07:01:07;;;;;;;4.63;2.58;;;;;;;17.81;75.16;100412.44;7397716;19;20066;-67
2023/08/04 07:03:38;;;;;;;4.00;2.58;;;;;;;17.85;75.05;100408.66;7398624;19;20087;-67
2023/08/04 07:06:07;;;;;;;6.20;2.38;;;;;;;17.87;74.55;100425.38;7398573;19;20474;-66
2023/08/04 07:08:35;;;;;;;5.93;2.20;;;;;;;17.87;74.38;100418.25;7398840;19;20078;-66
2023/08/04 07:11:04;;;;;;;5.45;2.63;;;;;;;17.91;74.63;100416.28;7398128;19;20071;-67
2023/08/04 07:13:32;;;;;;;9.00;2.90;;;;;;;17.93;74.06;100417.03;7398475;19;20015;-67
2023/08/04 07:16:01;;;;;;;6.70;2.53;;;;;;;17.96;73.21;100419.56;7398220;19;20083;-66
2023/08/04 07:18:30;;;;;;;5.85;2.50;;;;;;;17.99;73.58;100414.06;7396391;19;20014;-66
2023/08/04 07:21:08;;;;;;;6.60;3.25;;;;;;;18.05;73.10;100418.16;7396234;19;20074;-66
2023/08/04 07:23:37;;;;;;;5.28;2.25;;;;;;;18.13;73.11;100420.38;7398078;19;20477;-66
2023/08/04 07:26:06;;;;;;;4.05;2.20;;;;;;;18.20;72.52;100427.03;7395751;19;20078;-66
2023/08/04 07:28:35;;;;;;;7.03;1.90;;;;;;;18.28;71.93;100424.75;7398157;19;20031;-66
2023/08/04 07:31:05;;;;;;;6.45;2.00;;;;;;;18.37;71.77;100432.22;7397433;19;20481;-66
2023/08/04 07:33:34;;;;;;;2.92;2.00;;;;;;;18.49;71.20;100435.06;7398154;19;20010;-67
2023/08/04 07:36:03;;;;;;;3.72;2.33;;;;;;;18.61;71.02;100433.47;7399358;19;20480;-66
2023/08/04 07:38:34;;;;;;;3.75;1.80;;;;;;;18.71;69.99;100446.09;7397521;19;20077;-67
2023/08/04 07:41:03;;;;;;;5.75;1.90;;;;;;;18.79;69.43;100447.44;7397862;19;20347;-66
2023/08/04 07:43:31;;;;;;;4.20;2.00;;;;;;;18.83;68.72;100447.16;7397934;19;20025;-66
2023/08/04 07:46:00;;;;;;;5.65;1.88;;;;;;;18.86;68.80;100449.63;7396315;19;20074;-66
2023/08/04 07:48:29;;;;;;;8.23;2.20;;;;;;;18.88;68.54;100457.53;7395734;19;20014;-66
2023/08/04 07:50:57;;;;;;;8.32;2.08;;;;;;;18.91;68.35;100449.38;7396795;19;20011;-65
2023/08/04 07:53:26;;;;;;;5.65;1.60;;;;;;;18.94;68.24;100467.78;7394872;19;20011;-66
2023/08/04 07:56:01;;;;;;;4.53;2.00;;;;;;;18.97;67.22;100466.75;7396259;19;20420;-66
2023/08/04 07:58:29;;;;;;;3.92;1.98;;;;;;;19.02;67.51;100470.84;7397501;19;20018;-66
2023/08/04 08:00:58;;;;;;;4.78;2.03;;;;;;;19.11;67.16;100473.88;7396698;19;20011;-65
2023/08/04 08:03:26;;;;;;;8.43;2.28;;;;;;;19.17;67.01;100487.66;7394532;19;20502;-66
2023/08/04 08:05:55;;;;;;;6.90;2.53;;;;;;;19.18;66.51;100496.47;7396182;19;20010;-67
2023/08/04 08:08:23;;;;;;;4.43;1.77;;;;;;;19.19;66.99;100480.41;7396633;19;20015;-66
2023/08/04 08:10:51;;;;;;;5.70;2.03;;;;;;;19.23;66.44;100482.91;7396167;19;20504;-67
2023/08/04 08:13:24;;;;;;;4.50;1.88;;;;;;;19.29;66.24;100479.88;7395240;19;20018;-67
2023/08/04 08:15:52;;;;;;;3.85;2.25;;;;;;;19.38;66.11;100479.28;7396896;19;20037;-68
2023/08/04 08:18:21;;;;;;;3.97;2.38;;;;;;;19.45;66.06;100483.28;7396489;19;20018;-68
2023/08/04 08:20:49;;;;;;;3.60;2.03;;;;;;;19.52;65.42;100483.72;7394919;19;20014;-68
2023/08/04 08:23:18;;;;;;;5.00;1.80;;;;;;;19.59;65.18;100489.50;7396666;19;20014;-68
2023/08/04 08:25:46;;;;;;;5.53;2.08;;;;;;;19.67;65.21;100482.75;7394344;19;20406;-67
2023/08/04 08:28:15;;;;;;;4.15;1.90;;;;;;;19.76;64.94;100486.63;7396284;19;20031;-71
2023/08/04 08:30:46;;;;;;;5.57;2.25;;;;;;;19.80;64.38;100485.50;7395080;19;20011;-67
2023/08/04 08:33:14;;;;;;;3.80;1.92;;;;;;;19.84;63.83;100492.34;7393714;19;20014;-68
2023/08/04 08:35:43;;;;;;;5.45;1.80;;;;;;;19.83;63.55;100505.75;7394937;19;20497;-67
2023/08/04 08:38:11;;;;;;;5.55;2.20;;;;;;;19.82;64.10;100504.00;7395171;19;20047;-68
2023/08/04 08:40:40;;;;;;;6.13;2.40;;;;;;;19.85;63.86;100511.81;7395720;19;20074;-67
2023/08/04 08:43:08;;;;;;;6.10;1.90;;;;;;;19.88;64.02;100510.78;7394528;19;20090;-67
2023/08/04 08:45:40;;;;;;;7.32;2.38;;;;;;;19.89;63.96;100517.81;7396042;19;20023;-66
2023/08/04 08:48:12;;;;;;;7.30;2.38;;;;;;;19.90;63.34;100507.06;7394034;19;20078;-66
2023/08/04 08:50:42;;;;;;;8.40;2.70;;;;;;;19.91;63.75;100519.41;7396315;19;20028;-67
2023/08/04 08:53:22;;;;;;;5.85;2.35;;;;;;;19.92;63.82;100522.94;7392349;19;20018;-71
2023/08/04 08:55:57;;;;;;;7.20;2.40;;;;;;;19.93;63.77;100521.97;7394447;19;20017;-70
2023/08/04 08:58:26;;;;;;;8.30;2.50;;;;;;;19.92;64.28;100525.63;7392610;19;20082;-66
2023/08/04 09:00:54;;;;;;;4.63;2.13;;;;;;;19.92;63.92;100523.78;7394877;19;20086;-66
2023/08/04 09:03:26;;;;;;;6.65;2.47;;;;;;;19.86;64.16;100530.34;7394610;19;20438;-66
2023/08/04 09:05:54;;;;;;;5.85;2.50;;;;;;;19.78;64.80;100532.63;7395289;19;20023;-65
2023/08/04 09:08:23;;;;;;;7.43;2.42;;;;;;;19.71;64.77;100525.97;7393314;19;20078;-66
2023/08/04 09:10:51;;;;;;;5.85;2.53;;;;;;;19.67;64.51;100535.97;7394927;19;20031;-69
2023/08/04 09:13:21;;;;;;;4.57;2.15;;;;;;;19.66;62.80;100539.59;7392552;19;20090;-65
2023/08/04 09:15:51;;;;;;;3.10;1.77;;;;;;;19.70;62.75;100532.25;7394121;19;20014;-66
2023/08/04 09:18:30;;;;;;;5.22;1.95;;;;;;;19.84;61.27;100528.75;7394939;19;20083;-66
2023/08/04 09:21:21;;;;;;;11.48;2.42;;;;;;;20.00;62.04;100532.16;7394649;19;20015;-66
2023/08/04 09:23:53;;;;;;;3.90;1.70;;;;;;;20.13;61.67;100528.66;7394647;19;20015;-67
2023/08/04 09:26:21;;;;;;;5.25;2.05;;;;;;;20.22;61.06;100532.53;7393568;19;20066;-67
2023/08/04 09:29:05;;;;;;;5.78;2.60;;;;;;;20.27;59.95;100543.75;7393825;19;20015;-70
2023/08/04 09:31:37;;;;;;;5.78;2.45;;;;;;;20.27;60.24;100544.63;7392633;19;20010;-66
2023/08/04 09:34:09;;;;;;;4.20;2.35;;;;;;;20.22;61.15;100551.19;7394345;19;20015;-67
2023/08/04 09:36:43;;;;;;;3.42;1.73;;;;;;;20.21;60.79;100542.34;7393411;19;20082;-66
2023/08/04 09:39:12;;;;;;;5.85;1.83;;;;;;;20.20;60.87;100543.28;7397068;19;20419;-66
2023/08/04 09:41:43;;;;;;;5.63;2.33;;;;;;;20.17;60.06;100546.19;7394316;19;20015;-67
2023/08/04 09:44:14;;;;;;;5.30;2.13;;;;;;;20.15;60.65;100538.25;7394367;19;20010;-68
2023/08/04 09:46:49;;;;;;;4.47;1.60;;;;;;;20.15;60.30;100537.41;7392109;19;20018;-67
2023/08/04 09:49:22;;;;;;;4.93;2.00;;;;;;;20.12;58.65;100541.13;7394855;19;20011;-68
2023/08/04 09:51:51;;;;;;;3.47;1.60;;;;;;;20.11;59.69;100543.91;7393989;19;20026;-70
2023/08/04 09:54:25;;;;;;;3.88;1.80;;;;;;;20.13;60.09;100534.88;7391318;19;20026;-69
2023/08/04 09:57:02;;;;;;;3.92;1.75;;;;;;;20.24;60.01;100533.31;7392468;19;20027;-71
2023/08/04 09:59:31;;;;;;;6.38;2.30;;;;;;;20.36;59.88;100537.81;7394697;19;20013;-69
2023/08/04 10:02:00;;;;;;;7.40;2.00;;;;;;;20.50;59.47;100536.91;7393233;19;20049;-69
2023/08/04 10:04:31;;;;;;;8.38;2.13;;;;;;;20.67;58.76;100533.97;7393609;19;20011;-70
2023/08/04 10:07:00;;;;;;;4.82;1.77;;;;;;;20.86;58.90;100532.72;7392368;19;20134;-71
2023/08/04 10:09:30;;;;;;;4.47;1.98;;;;;;;21.06;58.03;100525.19;7396890;19;20035;-70
2023/08/04 10:11:59;;;;;;;6.40;1.85;;;;;;;21.25;57.16;100530.91;7400192;19;20078;-70
2023/08/04 10:14:27;;;;;;;3.33;1.45;;;;;;;21.44;53.13;100542.97;7400302;19;20077;-69
2023/08/04 10:16:57;;;;;;;4.65;1.40;;;;;;;21.56;53.72;100538.59;7399115;19;20082;-71
2023/08/04 10:19:26;;;;;;;10.70;3.92;;;;;;;21.63;53.94;100543.41;7400219;19;20006;-69
2023/08/04 10:22:06;;;;;;;2.40;1.35;;;;;;;21.66;52.85;100541.47;7399874;19;20361;-68
2023/08/04 10:24:37;;;;;;;6.07;2.20;;;;;;;21.66;54.22;100554.81;7399969;19;20011;-68
2023/08/04 10:27:17;;;;;;;5.68;1.70;;;;;;;21.69;53.25;100555.44;7398218;19;20355;-67
2023/08/04 10:29:46;;;;;;;7.05;1.75;;;;;;;21.79;53.59;100558.31;7400003;19;20010;-70
2023/08/04 10:32:14;;;;;;;5.55;2.10;;;;;;;21.85;53.51;100557.88;7399386;19;20548;-70
2023/08/04 10:34:44;;;;;;;4.50;1.48;;;;;;;21.89;51.96;100551.34;7399229;19;20014;-68
2023/08/04 10:37:19;;;;;;;2.38;1.10;;;;;;;21.95;50.75;100552.69;7398344;19;20031;-68
2023/08/04 10:39:49;;;;;;;3.92;1.48;;;;;;;22.02;51.73;100545.13;7399465;19;20010;-71
2023/08/04 10:42:23;;;;;;;5.80;1.83;;;;;;;22.15;51.92;100553.91;7396983;19;20090;-68
2023/08/04 10:44:53;;;;;;;5.07;1.30;;;;;;;22.21;51.01;100545.44;7399089;19;20010;-70
2023/08/04 10:47:33;;;;;;;6.85;1.90;;;;;;;22.25;49.80;100538.91;7397309;19;20473;-66
2023/08/04 10:50:03;;;;;;;6.57;2.10;;;;;;;22.32;50.75;100533.97;7400950;19;20011;-68
2023/08/04 10:52:35;;;;;;;3.90;1.90;;;;;;;22.32;50.64;100533.97;7397679;19;20029;-71
2023/08/04 10:55:11;;;;;;;6.88;2.58;;;;;;;22.20;50.63;100526.88;7396926;19;20018;-67
2023/08/04 10:57:41;;;;;;;4.38;1.67;;;;;;;22.11;51.83;100533.75;7395559;19;20485;-69
2023/08/04 11:00:14;;;;;;;6.30;1.90;;;;;;;21.97;52.31;100538.28;7398765;19;20010;-67
2023/08/04 11:02:42;;;;;;;6.65;2.10;;;;;;;21.85;52.14;100536.53;7399004;19;20372;-66
2023/08/04 11:05:13;;;;;;;3.97;1.85;;;;;;;21.81;52.70;100540.34;7396050;19;20011;-67
2023/08/04 11:07:48;;;;;;;3.50;1.42;;;;;;;21.80;52.45;100533.34;7396549;19;20037;-66
2023/08/04 11:10:17;;;;;;;3.22;1.33;;;;;;;21.84;52.91;100540.16;7399201;19;20070;-68
2023/08/04 11:12:46;;;;;;;4.63;1.35;;;;;;;21.90;53.26;100542.38;7396164;19;20078;-67
2023/08/04 11:15:14;;;;;;;4.72;1.77;;;;;;;22.02;53.35;100558.47;7397854;19;20031;-70
2023/08/04 11:17:43;;;;;;;8.43;2.78;;;;;;;22.10;53.45;100559.63;7395635;19;20026;-66
2023/08/04 11:20:15;;;;;;;4.65;1.90;;;;;;;22.17;53.62;100553.81;7394416;19;20080;-69
2023/08/04 11:22:47;;;;;;;5.80;1.42;;;;;;;22.25;53.23;100552.25;7398415;19;20010;-67
2023/08/04 11:25:15;;;;;;;2.33;1.50;;;;;;;22.28;53.07;100562.75;7398038;19;20010;-66
2023/08/04 11:27:44;;;;;;;5.53;2.13;;;;;;;22.24;52.06;100571.09;7396183;19;20041;-67
2023/08/04 11:30:14;;;;;;;4.65;1.67;;;;;;;22.18;52.33;100555.50;7397085;19;20069;-68
2023/08/04 11:32:42;;;;;;;6.55;2.17;;;;;;;22.10;52.93;100550.72;7396449;19;20006;-72
2023/08/04 11:35:11;;;;;;;6.43;1.95;;;;;;;22.02;53.12;100566.50;7397863;19;20024;-67